Aviation Digital Data Service (ADDS)

Output produced by METARs form (2334 UTC 15 February 2019)
found at http://www.aviationweather.gov/metar/data/
 
METAR text: RPLI 152300Z 13003KT 8000 FEW018 20/19 Q1017 NOSIG RMK A3003
Conditions at: RPLI (LAOAG INTL(PH-AR, PH) observed 2300 UTC 15 February 2019
Temperature: 20.0°C (68°F)
Dewpoint: 19.0°C (66°F) [RH = 94%]
Pressure (altimeter): 30.03 inches Hg (1017.0 mb)
Winds: from the SE (130 degrees) at 3 MPH (3 knots; 1.5 m/s)
Visibility: 5 miles ( 8 km)
Ceiling: at least 12,000 feet AGL
Clouds: few clouds at 1800 feet AGL
Weather: no significant weather observed at this time

METAR text: RPLI 152200Z 13003KT 9999 FEW018 20/19 Q1016 NOSIG RMK A3000
Conditions at: RPLI (LAOAG INTL(PH-AR, PH) observed 2200 UTC 15 February 2019
Temperature: 20.0°C (68°F)
Dewpoint: 19.0°C (66°F) [RH = 94%]
Pressure (altimeter): 30.00 inches Hg (1016.0 mb)
Winds: from the SE (130 degrees) at 3 MPH (3 knots; 1.5 m/s)
Visibility: 6 or more miles (10+ km)
Ceiling: at least 12,000 feet AGL
Clouds: few clouds at 1800 feet AGL
Weather: no significant weather observed at this time

METAR text: RPLI 152100Z 11003KT 080V140 9999 FEW018 SCT290 21/20 Q1016 NOSIG RMK A3000
Conditions at: RPLI (LAOAG INTL(PH-AR, PH) observed 2100 UTC 15 February 2019
Temperature: 21.0°C (70°F)
Dewpoint: 20.0°C (68°F) [RH = 94%]
Pressure (altimeter): 30.00 inches Hg (1016.0 mb)
Winds: from the ESE (110 degrees) at 3 MPH (3 knots; 1.5 m/s)
Visibility: 6 or more miles (10+ km)
Ceiling: at least 12,000 feet AGL
Clouds: few clouds at 1800 feet AGL
scattered clouds at 29000 feet AGL
Weather: no significant weather observed at this time

METAR text: RPLI 151800Z 14002KT 9999 R01/P2000N FEW018 SCT290 21/20 Q1016 NOSIG RMK A3000
Conditions at: RPLI (LAOAG INTL(PH-AR, PH) observed 1800 UTC 15 February 2019
Temperature: 21.0°C (70°F)
Dewpoint: 20.0°C (68°F) [RH = 94%]
Pressure (altimeter): 30.00 inches Hg (1016.0 mb)
Winds: from the SE (140 degrees) at 2 MPH (2 knots; 1.0 m/s)
Visibility: 6 or more miles (10+ km)
Ceiling: at least 12,000 feet AGL
Clouds: few clouds at 1800 feet AGL
scattered clouds at 29000 feet AGL
Weather: no significant weather observed at this time

METAR text: RPLI 151500Z 15002KT 9999 R01/P2000N FEW018 22/21 Q1017 NOSIG RMK A3003
Conditions at: RPLI (LAOAG INTL(PH-AR, PH) observed 1500 UTC 15 February 2019
Temperature: 22.0°C (72°F)
Dewpoint: 21.0°C (70°F) [RH = 94%]
Pressure (altimeter): 30.03 inches Hg (1017.0 mb)
Winds: from the SSE (150 degrees) at 2 MPH (2 knots; 1.0 m/s)
Visibility: 6 or more miles (10+ km)
Ceiling: at least 12,000 feet AGL
Clouds: few clouds at 1800 feet AGL
Weather: no significant weather observed at this time

METAR text: RPLI 151200Z 00000KT 9999 FEW018 BKN100 25/22 Q1017 NOSIG RMK A3003
Conditions at: RPLI (LAOAG INTL(PH-AR, PH) observed 1200 UTC 15 February 2019
Temperature: 25.0°C (77°F)
Dewpoint: 22.0°C (72°F) [RH = 83%]
Pressure (altimeter): 30.03 inches Hg (1017.0 mb)
Winds: calm
Visibility: 6 or more miles (10+ km)
Ceiling: 10000 feet AGL
Clouds: few clouds at 1800 feet AGL
broken clouds at 10000 feet AGL
Weather: no significant weather observed at this time

METAR text: RPLI 151100Z 36004KT 9999 FEW018 SCT100 26/22 Q1016 NOSIG RMK A3000
Conditions at: RPLI (LAOAG INTL(PH-AR, PH) observed 1100 UTC 15 February 2019
Temperature: 26.0°C (79°F)
Dewpoint: 22.0°C (72°F) [RH = 79%]
Pressure (altimeter): 30.00 inches Hg (1016.0 mb)
Winds: from the N (360 degrees) at 5 MPH (4 knots; 2.1 m/s)
Visibility: 6 or more miles (10+ km)
Ceiling: at least 12,000 feet AGL
Clouds: few clouds at 1800 feet AGL
scattered clouds at 10000 feet AGL
Weather: no significant weather observed at this time

METAR text: RPLI 151000Z 36005KT 330V040 9999 FEW018 SCT100 26/22 Q1016 NOSIG RMK A3000
Conditions at: RPLI (LAOAG INTL(PH-AR, PH) observed 1000 UTC 15 February 2019
Temperature: 26.0°C (79°F)
Dewpoint: 22.0°C (72°F) [RH = 79%]
Pressure (altimeter): 30.00 inches Hg (1016.0 mb)
Winds: from the N (360 degrees) at 6 MPH (5 knots; 2.6 m/s)
Visibility: 6 or more miles (10+ km)
Ceiling: at least 12,000 feet AGL
Clouds: few clouds at 1800 feet AGL
scattered clouds at 10000 feet AGL
Weather: no significant weather observed at this time

METAR text: RPLI 150900Z 36007KT 320V030 9999 FEW018 27/22 Q1015 NOSIG RMK A2997
Conditions at: RPLI (LAOAG INTL(PH-AR, PH) observed 0900 UTC 15 February 2019
Temperature: 27.0°C (81°F)
Dewpoint: 22.0°C (72°F) [RH = 74%]
Pressure (altimeter): 29.97 inches Hg (1015.0 mb)
Winds: from the N (360 degrees) at 8 MPH (7 knots; 3.6 m/s)
Visibility: 6 or more miles (10+ km)
Ceiling: at least 12,000 feet AGL
Clouds: few clouds at 1800 feet AGL
Weather: no significant weather observed at this time

METAR text: RPLI 150800Z 35007KT 310V020 9999 FEW018 28/21 Q1015 NOSIG RMK A2997
Conditions at: RPLI (LAOAG INTL(PH-AR, PH) observed 0800 UTC 15 February 2019
Temperature: 28.0°C (82°F)
Dewpoint: 21.0°C (70°F) [RH = 66%]
Pressure (altimeter): 29.97 inches Hg (1015.0 mb)
Winds: from the N (350 degrees) at 8 MPH (7 knots; 3.6 m/s)
Visibility: 6 or more miles (10+ km)
Ceiling: at least 12,000 feet AGL
Clouds: few clouds at 1800 feet AGL
Weather: no significant weather observed at this time

METAR text: RPLI 150700Z 35008KT 310V030 9999 FEW018 28/22 Q1015 NOSIG RMK A2997
Conditions at: RPLI (LAOAG INTL(PH-AR, PH) observed 0700 UTC 15 February 2019
Temperature: 28.0°C (82°F)
Dewpoint: 22.0°C (72°F) [RH = 70%]
Pressure (altimeter): 29.97 inches Hg (1015.0 mb)
Winds: from the N (350 degrees) at 9 MPH (8 knots; 4.1 m/s)
Visibility: 6 or more miles (10+ km)
Ceiling: at least 12,000 feet AGL
Clouds: few clouds at 1800 feet AGL
Weather: no significant weather observed at this time

METAR text: RPLI 150600Z 35009KT 320V020 9999 FEW018 28/22 Q1015 NOSIG RMK A2997
Conditions at: RPLI (LAOAG INTL(PH-AR, PH) observed 0600 UTC 15 February 2019
Temperature: 28.0°C (82°F)
Dewpoint: 22.0°C (72°F) [RH = 70%]
Pressure (altimeter): 29.97 inches Hg (1015.0 mb)
Winds: from the N (350 degrees) at 10 MPH (9 knots; 4.6 m/s)
Visibility: 6 or more miles (10+ km)
Ceiling: at least 12,000 feet AGL
Clouds: few clouds at 1800 feet AGL
Weather: no significant weather observed at this time

METAR text: RPLI 150500Z 33008KT 280V010 9999 FEW018 28/23 Q1016 NOSIG RMK A3000
Conditions at: RPLI (LAOAG INTL(PH-AR, PH) observed 0500 UTC 15 February 2019
Temperature: 28.0°C (82°F)
Dewpoint: 23.0°C (73°F) [RH = 74%]
Pressure (altimeter): 30.00 inches Hg (1016.0 mb)
Winds: from the NNW (330 degrees) at 9 MPH (8 knots; 4.1 m/s)
Visibility: 6 or more miles (10+ km)
Ceiling: at least 12,000 feet AGL
Clouds: few clouds at 1800 feet AGL
Weather: no significant weather observed at this time

METAR text: RPLI 150400Z 34007KT 290V010 9999 FEW018 28/22 Q1017 NOSIG RMK A3003
Conditions at: RPLI (LAOAG INTL(PH-AR, PH) observed 0400 UTC 15 February 2019
Temperature: 28.0°C (82°F)
Dewpoint: 22.0°C (72°F) [RH = 70%]
Pressure (altimeter): 30.03 inches Hg (1017.0 mb)
Winds: from the NNW (340 degrees) at 8 MPH (7 knots; 3.6 m/s)
Visibility: 6 or more miles (10+ km)
Ceiling: at least 12,000 feet AGL
Clouds: few clouds at 1800 feet AGL
Weather: no significant weather observed at this time

METAR text: RPLI 150300Z 30006KT 260V020 9999 SCT018 28/22 Q1018 NOSIG RMK A3006
Conditions at: RPLI (LAOAG INTL(PH-AR, PH) observed 0300 UTC 15 February 2019
Temperature: 28.0°C (82°F)
Dewpoint: 22.0°C (72°F) [RH = 70%]
Pressure (altimeter): 30.06 inches Hg (1018.0 mb)
Winds: from the WNW (300 degrees) at 7 MPH (6 knots; 3.1 m/s)
Visibility: 6 or more miles (10+ km)
Ceiling: at least 12,000 feet AGL
Clouds: scattered clouds at 1800 feet AGL
Weather: no significant weather observed at this time

METAR text: RPLI 150200Z VRB04KT 9999 FEW018 SCT080 27/22 Q1019 NOSIG RMK A3009
Conditions at: RPLI (LAOAG INTL(PH-AR, PH) observed 0200 UTC 15 February 2019
Temperature: 27.0°C (81°F)
Dewpoint: 22.0°C (72°F) [RH = 74%]
Pressure (altimeter): 30.09 inches Hg (1019.0 mb)
Winds: variable direction winds at 5 MPH (4 knots; 2.1 m/s)
Visibility: 6 or more miles (10+ km)
Ceiling: at least 12,000 feet AGL
Clouds: few clouds at 1800 feet AGL
scattered clouds at 8000 feet AGL
Weather: no significant weather observed at this time

METAR text: RPLI 150100Z 13003KT 080V160 8000 FEW018 26/21 Q1018 NOSIG RMK A3006
Conditions at: RPLI (LAOAG INTL(PH-AR, PH) observed 0100 UTC 15 February 2019
Temperature: 26.0°C (79°F)
Dewpoint: 21.0°C (70°F) [RH = 74%]
Pressure (altimeter): 30.06 inches Hg (1018.0 mb)
Winds: from the SE (130 degrees) at 3 MPH (3 knots; 1.5 m/s)
Visibility: 5 miles ( 8 km)
Ceiling: at least 12,000 feet AGL
Clouds: few clouds at 1800 feet AGL
Weather: no significant weather observed at this time

METAR text: RPLI 150000Z 15003KT 120V180 8000 SCT018 SCT100 22/20 Q1018 NOSIG RMK A3006
Conditions at: RPLI (LAOAG INTL(PH-AR, PH) observed 0000 UTC 15 February 2019
Temperature: 22.0°C (72°F)
Dewpoint: 20.0°C (68°F) [RH = 88%]
Pressure (altimeter): 30.06 inches Hg (1018.0 mb)
Winds: from the SSE (150 degrees) at 3 MPH (3 knots; 1.5 m/s)
Visibility: 5 miles ( 8 km)
Ceiling: at least 12,000 feet AGL
Clouds: scattered clouds at 1800 feet AGL
scattered clouds at 10000 feet AGL
Weather: no significant weather observed at this time

METAR text: RPLI 142300Z 13004KT 8000 FEW018 21/20 Q1017 NOSIG RMK A3003
Conditions at: RPLI (LAOAG INTL(PH-AR, PH) observed 2300 UTC 14 February 2019
Temperature: 21.0°C (70°F)
Dewpoint: 20.0°C (68°F) [RH = 94%]
Pressure (altimeter): 30.03 inches Hg (1017.0 mb)
Winds: from the SE (130 degrees) at 5 MPH (4 knots; 2.1 m/s)
Visibility: 5 miles ( 8 km)
Ceiling: at least 12,000 feet AGL
Clouds: few clouds at 1800 feet AGL
Weather: no significant weather observed at this time

METAR text: RPLI 142200Z 14003KT 9999 FEW018 21/20 Q1017 NOSIG RMK A3003
Conditions at: RPLI (LAOAG INTL(PH-AR, PH) observed 2200 UTC 14 February 2019
Temperature: 21.0°C (70°F)
Dewpoint: 20.0°C (68°F) [RH = 94%]
Pressure (altimeter): 30.03 inches Hg (1017.0 mb)
Winds: from the SE (140 degrees) at 3 MPH (3 knots; 1.5 m/s)
Visibility: 6 or more miles (10+ km)
Ceiling: at least 12,000 feet AGL
Clouds: few clouds at 1800 feet AGL
Weather: no significant weather observed at this time

METAR text: RPLI 142100Z 13002KT 9999 FEW018 21/20 Q1016 NOSIG RMK A3000
Conditions at: RPLI (LAOAG INTL(PH-AR, PH) observed 2100 UTC 14 February 2019
Temperature: 21.0°C (70°F)
Dewpoint: 20.0°C (68°F) [RH = 94%]
Pressure (altimeter): 30.00 inches Hg (1016.0 mb)
Winds: from the SE (130 degrees) at 2 MPH (2 knots; 1.0 m/s)
Visibility: 6 or more miles (10+ km)
Ceiling: at least 12,000 feet AGL
Clouds: few clouds at 1800 feet AGL
Weather: no significant weather observed at this time

METAR text: RPLI 141800Z 15003KT 9999 R01/P2000N FEW018 22/21 Q1015 NOSIG RMK A2997
Conditions at: RPLI (LAOAG INTL(PH-AR, PH) observed 1800 UTC 14 February 2019
Temperature: 22.0°C (72°F)
Dewpoint: 21.0°C (70°F) [RH = 94%]
Pressure (altimeter): 29.97 inches Hg (1015.0 mb)
Winds: from the SSE (150 degrees) at 3 MPH (3 knots; 1.5 m/s)
Visibility: 6 or more miles (10+ km)
Ceiling: at least 12,000 feet AGL
Clouds: few clouds at 1800 feet AGL
Weather: no significant weather observed at this time

METAR text: RPLI 141500Z VRB02KT 9999 R01/P2000N FEW018 24/22 Q1016 NOSIG RMK A3000
Conditions at: RPLI (LAOAG INTL(PH-AR, PH) observed 1500 UTC 14 February 2019
Temperature: 24.0°C (75°F)
Dewpoint: 22.0°C (72°F) [RH = 89%]
Pressure (altimeter): 30.00 inches Hg (1016.0 mb)
Winds: variable direction winds at 2 MPH (2 knots; 1.0 m/s)
Visibility: 6 or more miles (10+ km)
Ceiling: at least 12,000 feet AGL
Clouds: few clouds at 1800 feet AGL
Weather: no significant weather observed at this time

METAR text: RPLI 141200Z 20004KT 9999 FEW018 25/22 Q1016 NOSIG RMK A3000
Conditions at: RPLI (LAOAG INTL(PH-AR, PH) observed 1200 UTC 14 February 2019
Temperature: 25.0°C (77°F)
Dewpoint: 22.0°C (72°F) [RH = 83%]
Pressure (altimeter): 30.00 inches Hg (1016.0 mb)
Winds: from the SSW (200 degrees) at 5 MPH (4 knots; 2.1 m/s)
Visibility: 6 or more miles (10+ km)
Ceiling: at least 12,000 feet AGL
Clouds: few clouds at 1800 feet AGL
Weather: no significant weather observed at this time

Forecast for: RPLI (LAOAG INTL(PH-AR, PH)
Text: TAF RPLI 152300Z 1600/1624 34006KT 9999 FEW018
Forecast period: 0000 UTC 16 February 2019 to 0000 UTC 17 February 2019
Forecast type: FROM: standard forecast or significant change
Winds: from the NNW (340 degrees) at 7 MPH (6 knots; 3.1 m/s)
Visibility: 6 or more miles 10+ km)
Ceiling: at least 12,000 feet AGL
Clouds: few clouds at 1800 feet AGL
Weather: no significant weather forecast for this period
Text: TEMPO 1600/1606 35012KT FEW018 SCT100
Forecast period: 0000 to 0600 UTC 16 February 2019
Forecast type: TEMPORARY: The following changes expected for less than half the time period
Winds: from the N (350 degrees) at 14 MPH (12 knots; 6.2 m/s)
Visibility: missing
Ceiling: at least 12,000 feet AGL
Clouds: few clouds at 1800 feet AGL
scattered clouds at 10000 feet AGL
Weather: no significant weather forecast for this period
Text: TEMPO 1618/1624 14005KT
Forecast period: 1800 UTC 16 February 2019 to 0000 UTC 17 February 2019
Forecast type: TEMPORARY: The following changes expected for less than half the time period
Winds: from the SE (140 degrees) at 6 MPH (5 knots; 2.6 m/s)
Visibility: missing
Ceiling: unknown
Clouds: missing
Weather: no significant weather forecast for this period